Bentonville, Ohio
Current Conditions -  °F | °C
As of 3:35 AM on Saturday 29 Nov 2014 (Local Time) from KFGX Reporting Station
Clear Clear  
Wind Chill: 26°   Ceiling: Unl
Heat Index: 33°   Visibility: 10mi
Dew Point: 21°   Wind: 8mph
Humidity: 61%   Direction: 170°S
Pressure: 30.12"   Gusts: NA
Location:  38.75°N, 83.61°W
Report Text: KFGX 290835Z AUTO 17007KT 10SM CLR 01/M06 A3012 RMK AO2 T00061062
Loading
Personal Weather Stations






























Interactive Weather Map New forecast layout! Learn more

10-Day Weather Forecast

Advertisements
Track Severe Weather on mobile